Time;durP1;ratioP1;P1;durP2;ratioP2;P2;SDS_P1;SDS_P2;PMS_P1;PMS_P2;Temp;Humidity;BMP_temperature;BMP_pressure;BME280_temperature;BME280_humidity;BME280_pressure;Samples;Min_cycle;Max_cycle;Signal;HPM_P1;HPM_P2
2020/12/25 00:01:45;;;;;;;6.55;0.20;;;4.20;99.90;;;;;;5032626;28;20467;-61
2020/12/25 00:04:10;;;;;;;2.58;0.20;;;4.20;99.90;;;;;;5032158;28;20059;-60
2020/12/25 00:06:37;;;;;;;3.22;0.68;;;4.20;99.90;;;;;;5038663;28;20057;-59
2020/12/25 00:09:05;;;;;;;2.92;0.20;;;4.20;99.90;;;;;;5036836;28;20025;-62
2020/12/25 00:11:36;;;;;;;1.45;0.10;;;4.20;99.90;;;;;;5034570;28;20033;-59
2020/12/25 00:14:03;;;;;;;2.63;0.20;;;4.20;99.90;;;;;;5030844;28;20036;-60
2020/12/25 00:16:29;;;;;;;1.65;0.20;;;4.10;99.90;;;;;;5031517;28;20044;-58
2020/12/25 00:18:55;;;;;;;2.67;0.90;;;4.10;99.90;;;;;;5038198;28;20020;-59
2020/12/25 00:21:21;;;;;;;4.45;0.13;;;4.00;99.90;;;;;;5034178;28;20072;-59
2020/12/25 00:23:46;;;;;;;0.85;0.17;;;4.00;99.90;;;;;;5029992;28;20033;-60
2020/12/25 00:26:29;;;;;;;3.08;1.00;;;3.90;99.90;;;;;;5027154;28;20149;-58
2020/12/25 00:28:57;;;;;;;1.35;0.30;;;3.90;99.90;;;;;;5034211;28;20048;-60
2020/12/25 00:31:31;;;;;;;2.65;0.20;;;3.80;99.90;;;;;;5037996;28;20574;-60
2020/12/25 00:34:01;;;;;;;2.42;0.30;;;3.80;99.90;;;;;;5038695;28;20022;-58
2020/12/25 00:36:33;;;;;;;4.47;1.13;;;3.70;99.90;;;;;;5035960;28;20412;-61
2020/12/25 00:39:00;;;;;;;2.97;0.20;;;3.90;99.90;;;;;;5038070;28;20061;-59
2020/12/25 00:41:26;;;;;;;3.55;0.30;;;3.90;99.90;;;;;;5039964;28;20056;-58
2020/12/25 00:43:53;;;;;;;2.45;0.10;;;3.90;99.90;;;;;;5038559;28;20025;-60
2020/12/25 00:46:19;;;;;;;1.20;0.65;;;3.90;99.90;;;;;;5039694;28;20053;-59
2020/12/25 00:48:45;;;;;;;3.53;0.40;;;3.90;99.90;;;;;;5040514;28;20075;-59
2020/12/25 00:51:18;;;;;;;1.42;0.20;;;3.80;99.90;;;;;;5042736;28;20028;-62
2020/12/25 00:53:44;;;;;;;5.60;1.02;;;3.80;99.90;;;;;;5042096;28;20508;-60
2020/12/25 00:56:11;;;;;;;0.43;0.22;;;3.70;99.90;;;;;;5041787;28;20026;-59
2020/12/25 00:58:37;;;;;;;1.85;0.20;;;3.70;99.90;;;;;;5042482;28;20524;-61
2020/12/25 01:01:04;;;;;;;4.95;0.98;;;3.70;99.90;;;;;;5044337;28;20067;-58
2020/12/25 01:03:30;;;;;;;2.47;0.20;;;3.70;99.90;;;;;;5041955;28;20040;-59
2020/12/25 01:05:56;;;;;;;0.70;0.10;;;3.70;99.90;;;;;;5043210;28;20072;-59
2020/12/25 01:08:22;;;;;;;1.83;0.15;;;3.70;99.90;;;;;;5040803;28;20044;-59
2020/12/25 01:10:47;;;;;;;1.52;0.10;;;3.70;99.90;;;;;;5035261;28;20033;-58
2020/12/25 01:13:13;;;;;;;1.70;0.32;;;3.80;99.90;;;;;;5043549;28;20043;-58
2020/12/25 01:15:38;;;;;;;0.98;0.20;;;3.80;99.90;;;;;;5042796;28;20025;-60
2020/12/25 01:18:04;;;;;;;0.65;0.10;;;3.70;99.90;;;;;;5039016;28;20025;-58
2020/12/25 01:20:29;;;;;;;3.25;0.35;;;3.70;99.90;;;;;;5042311;28;20481;-58
2020/12/25 01:22:55;;;;;;;2.72;0.17;;;3.70;99.90;;;;;;5040517;28;20028;-61
2020/12/25 01:25:21;;;;;;;2.88;0.43;;;3.70;99.90;;;;;;5042959;28;20088;-59
2020/12/25 01:27:46;;;;;;;1.38;0.50;;;3.70;99.90;;;;;;5041792;28;20026;-59
2020/12/25 01:30:12;;;;;;;0.60;0.20;;;3.60;99.90;;;;;;5044083;28;20052;-60
2020/12/25 01:32:37;;;;;;;1.02;0.28;;;3.60;99.90;;;;;;5042355;28;20424;-58
2020/12/25 01:35:04;;;;;;;4.90;0.47;;;3.50;99.90;;;;;;5041682;28;20033;-58
2020/12/25 01:37:29;;;;;;;1.45;0.30;;;3.50;99.90;;;;;;5042579;28;20021;-60
2020/12/25 01:39:55;;;;;;;2.85;0.68;;;3.60;99.90;;;;;;5041940;28;20355;-58
2020/12/25 01:42:20;;;;;;;5.85;0.30;;;3.50;99.90;;;;;;5043522;28;20071;-60
2020/12/25 01:44:46;;;;;;;3.75;0.60;;;3.50;99.90;;;;;;5041689;28;20033;-60
2020/12/25 01:47:16;;;;;;;0.85;0.20;;;3.40;99.90;;;;;;5040281;28;20079;-59
2020/12/25 01:49:43;;;;;;;0.68;0.10;;;3.40;99.90;;;;;;5041258;28;20036;-62
2020/12/25 01:52:09;;;;;;;2.03;0.73;;;3.50;99.90;;;;;;5044242;28;20090;-61
2020/12/25 01:54:35;;;;;;;3.80;0.32;;;3.40;99.90;;;;;;5042122;28;20624;-59
2020/12/25 01:57:01;;;;;;;6.68;1.13;;;3.40;99.90;;;;;;5040612;28;20598;-59
2020/12/25 01:59:27;;;;;;;0.88;0.30;;;3.60;99.90;;;;;;5044420;28;20029;-60
2020/12/25 02:01:53;;;;;;;5.93;0.30;;;3.60;99.90;;;;;;5040625;28;20032;-62
2020/12/25 02:04:19;;;;;;;2.17;0.20;;;3.70;99.90;;;;;;5043456;28;20021;-59
2020/12/25 02:06:44;;;;;;;1.80;0.20;;;3.70;99.90;;;;;;5041028;28;20025;-61
2020/12/25 02:09:10;;;;;;;4.60;0.20;;;3.80;99.90;;;;;;5044747;28;20026;-58
2020/12/25 02:11:37;;;;;;;3.08;0.22;;;3.80;99.90;;;;;;5042279;28;20032;-62
2020/12/25 02:14:03;;;;;;;1.10;0.17;;;3.80;99.90;;;;;;5038692;28;20036;-59
2020/12/25 02:16:28;;;;;;;4.85;0.13;;;3.80;99.90;;;;;;5037761;28;20033;-59
2020/12/25 02:18:54;;;;;;;2.67;0.30;;;3.90;99.90;;;;;;5039777;28;20057;-60
2020/12/25 02:21:19;;;;;;;1.17;0.20;;;3.90;99.90;;;;;;5041532;28;20099;-59
2020/12/25 02:23:45;;;;;;;3.13;0.40;;;3.90;99.90;;;;;;5039679;28;20731;-59
2020/12/25 02:26:11;;;;;;;1.73;0.50;;;3.90;99.90;;;;;;5040114;28;20104;-64
2020/12/25 02:28:37;;;;;;;3.72;0.20;;;3.80;99.90;;;;;;5041957;28;20039;-60
2020/12/25 02:31:03;;;;;;;1.95;0.60;;;3.80;99.90;;;;;;5039208;28;20029;-58
2020/12/25 02:33:29;;;;;;;0.93;0.25;;;3.80;99.90;;;;;;5039682;28;20677;-61
2020/12/25 02:35:54;;;;;;;2.10;0.10;;;3.80;99.90;;;;;;5054420;23;20057;-64
2020/12/25 02:38:20;;;;;;;2.55;0.30;;;3.80;99.90;;;;;;5038132;28;20107;-64
2020/12/25 02:40:46;;;;;;;5.72;0.30;;;3.70;99.90;;;;;;5045440;28;20052;-65
2020/12/25 02:43:11;;;;;;;3.85;0.43;;;3.70;99.90;;;;;;5044402;28;20603;-65
2020/12/25 02:45:37;;;;;;;1.13;0.17;;;3.70;99.90;;;;;;5043863;28;20028;-64
2020/12/25 02:48:03;;;;;;;1.65;0.30;;;3.70;99.90;;;;;;5044461;28;20037;-65
2020/12/25 02:50:28;;;;;;;2.08;0.20;;;3.60;99.90;;;;;;5040638;28;20043;-64
2020/12/25 02:52:54;;;;;;;2.47;0.10;;;3.60;99.90;;;;;;5045481;28;20044;-66
2020/12/25 02:55:19;;;;;;;4.25;1.00;;;3.50;99.90;;;;;;5041256;28;20026;-64
2020/12/25 02:57:45;;;;;;;1.00;0.30;;;3.50;99.90;;;;;;5043539;28;20076;-65
2020/12/25 03:00:10;;;;;;;2.08;0.32;;;3.50;99.90;;;;;;5044570;28;20021;-64
2020/12/25 03:02:36;;;;;;;1.45;0.50;;;3.40;99.90;;;;;;5043069;28;20029;-64
2020/12/25 03:05:02;;;;;;;4.15;1.20;;;3.30;99.90;;;;;;5042746;28;20036;-64
2020/12/25 03:07:27;;;;;;;0.63;0.20;;;3.30;99.90;;;;;;5041518;28;20029;-64
2020/12/25 03:09:53;;;;;;;4.18;0.65;;;3.30;99.90;;;;;;5044681;28;20038;-64
2020/12/25 03:12:18;;;;;;;0.55;0.17;;;3.20;99.90;;;;;;5042937;28;20388;-66
2020/12/25 03:14:44;;;;;;;1.63;0.77;;;3.10;99.90;;;;;;5040283;28;20028;-64
2020/12/25 03:17:09;;;;;;;1.48;0.20;;;3.10;99.90;;;;;;5042048;28;20433;-64
2020/12/25 03:19:35;;;;;;;0.98;0.17;;;3.10;99.90;;;;;;5043725;28;20434;-65
2020/12/25 03:22:00;;;;;;;1.45;0.65;;;3.10;99.90;;;;;;5045936;28;20040;-64
2020/12/25 03:24:26;;;;;;;4.25;0.57;;;3.10;99.90;;;;;;5042926;28;20030;-64
2020/12/25 03:26:52;;;;;;;2.63;0.20;;;3.10;99.90;;;;;;5043370;28;20056;-65
2020/12/25 03:29:17;;;;;;;5.28;0.45;;;3.10;99.90;;;;;;5043023;28;20024;-65
2020/12/25 03:31:43;;;;;;;2.13;0.80;;;3.20;99.90;;;;;;5043204;28;20033;-64
2020/12/25 03:34:08;;;;;;;6.78;0.70;;;3.20;99.90;;;;;;5044988;28;20035;-65
2020/12/25 03:36:34;;;;;;;2.70;0.40;;;3.30;99.90;;;;;;5042726;28;20021;-65
2020/12/25 03:39:00;;;;;;;2.72;0.85;;;3.30;99.90;;;;;;5044371;28;20481;-64
2020/12/25 03:41:25;;;;;;;4.35;0.40;;;3.30;99.90;;;;;;5041209;28;20031;-64
2020/12/25 03:43:51;;;;;;;2.78;0.20;;;3.40;99.90;;;;;;5044066;28;20033;-64
2020/12/25 03:46:16;;;;;;;4.22;0.60;;;3.30;99.90;;;;;;5043633;28;20025;-64
2020/12/25 03:48:42;;;;;;;3.17;0.20;;;3.30;99.90;;;;;;5040442;28;20037;-64
2020/12/25 03:51:07;;;;;;;1.60;0.40;;;3.20;99.90;;;;;;5044256;28;20025;-64
2020/12/25 03:53:33;;;;;;;1.83;0.35;;;3.20;99.90;;;;;;5044538;28;20048;-64
2020/12/25 03:55:58;;;;;;;6.80;0.32;;;3.10;99.90;;;;;;5039834;28;20061;-64
2020/12/25 03:58:24;;;;;;;4.57;0.40;;;3.10;99.90;;;;;;5043218;28;20032;-64
2020/12/25 04:00:49;;;;;;;3.17;0.32;;;3.10;99.90;;;;;;5044395;28;20035;-64
2020/12/25 04:03:16;;;;;;;5.07;0.40;;;3.10;99.90;;;;;;5042384;28;20028;-66
2020/12/25 04:05:42;;;;;;;4.07;0.40;;;3.00;99.90;;;;;;5042777;28;20434;-64
2020/12/25 04:08:07;;;;;;;2.00;0.52;;;3.00;99.90;;;;;;5044797;28;20049;-65
2020/12/25 04:10:33;;;;;;;1.58;0.63;;;2.90;99.90;;;;;;5042377;28;20057;-64
2020/12/25 04:13:01;;;;;;;8.07;0.47;;;2.90;99.90;;;;;;5044540;28;20048;-64
2020/12/25 04:15:27;;;;;;;2.58;0.82;;;2.90;99.90;;;;;;5039214;28;20029;-64
2020/12/25 04:17:53;;;;;;;2.58;0.17;;;2.90;99.90;;;;;;5043981;28;20029;-64
2020/12/25 04:20:19;;;;;;;4.22;0.30;;;2.90;99.90;;;;;;5042293;28;20374;-63
2020/12/25 04:22:45;;;;;;;2.47;0.95;;;2.90;99.90;;;;;;5040689;28;20030;-65
2020/12/25 04:25:10;;;;;;;3.85;0.30;;;2.80;99.90;;;;;;5043123;28;20070;-64
2020/12/25 04:27:36;;;;;;;1.17;0.20;;;2.80;99.90;;;;;;5039504;28;20070;-63
2020/12/25 04:30:03;;;;;;;4.30;1.15;;;2.80;99.90;;;;;;5041915;28;20028;-66
2020/12/25 04:32:28;;;;;;;8.35;0.93;;;2.80;99.90;;;;;;5040748;28;20030;-65
2020/12/25 04:34:54;;;;;;;0.80;0.30;;;2.80;99.90;;;;;;5042708;28;20032;-64
2020/12/25 04:37:19;;;;;;;4.47;0.20;;;2.70;99.90;;;;;;5040675;28;20040;-64
2020/12/25 04:39:45;;;;;;;3.47;0.28;;;2.70;99.90;;;;;;5042700;28;20109;-64
2020/12/25 04:42:11;;;;;;;3.13;0.50;;;2.80;99.90;;;;;;5042288;28;20033;-65
2020/12/25 04:44:37;;;;;;;3.70;0.40;;;2.80;99.90;;;;;;5040050;28;20100;-63
2020/12/25 04:47:11;;;;;;;6.78;1.73;;;2.70;99.90;;;;;;5042354;28;20028;-64
2020/12/25 04:49:38;;;;;;;3.70;0.88;;;2.80;99.90;;;;;;5041719;28;20037;-64
2020/12/25 04:52:06;;;;;;;0.77;0.30;;;2.80;99.90;;;;;;5043443;28;20029;-64
2020/12/25 04:54:32;;;;;;;21.15;1.30;;;2.80;99.90;;;;;;5042807;28;20056;-65
2020/12/25 04:56:59;;;;;;;5.88;0.50;;;2.70;99.90;;;;;;5040030;28;20071;-64
2020/12/25 04:59:29;;;;;;;2.30;0.50;;;2.80;99.90;;;;;;5041591;28;20013;-64
2020/12/25 05:01:55;;;;;;;6.97;0.77;;;2.80;99.90;;;;;;5069126;28;20017;-64
2020/12/25 05:04:23;;;;;;;6.07;1.15;;;2.70;99.90;;;;;;5038917;28;20037;-63
2020/12/25 05:06:49;;;;;;;10.27;1.38;;;2.80;99.90;;;;;;5041943;28;20033;-65
2020/12/25 05:09:16;;;;;;;2.90;0.20;;;2.70;99.90;;;;;;5043069;28;20100;-64
2020/12/25 05:11:42;;;;;;;7.45;0.85;;;2.80;99.90;;;;;;5043523;28;20025;-64
2020/12/25 05:14:08;;;;;;;4.45;0.47;;;2.70;99.90;;;;;;5039122;28;20021;-63
2020/12/25 05:16:34;;;;;;;4.78;1.38;;;2.70;99.90;;;;;;5042005;28;20029;-64
2020/12/25 05:19:00;;;;;;;9.82;1.42;;;2.70;99.90;;;;;;5039134;28;20033;-64
2020/12/25 05:21:26;;;;;;;5.13;0.43;;;2.80;99.90;;;;;;5044446;28;20432;-63
2020/12/25 05:23:53;;;;;;;5.65;0.50;;;2.80;99.90;;;;;;5041294;28;20030;-64
2020/12/25 05:26:19;;;;;;;6.85;0.60;;;2.70;99.90;;;;;;5042335;28;20091;-63
2020/12/25 05:28:48;;;;;;;6.03;1.55;;;2.70;99.90;;;;;;5043343;28;21468;-64
2020/12/25 05:31:14;;;;;;;7.28;0.63;;;2.70;99.90;;;;;;5037907;28;20162;-63
2020/12/25 05:33:40;;;;;;;8.27;0.70;;;2.60;99.90;;;;;;5042483;28;20456;-64
2020/12/25 05:36:11;;;;;;;2.90;1.00;;;2.60;99.90;;;;;;5043212;28;20077;-64
2020/12/25 05:38:38;;;;;;;9.35;1.02;;;2.60;99.90;;;;;;5048074;28;20167;-64
2020/12/25 05:41:06;;;;;;;11.80;1.35;;;2.60;99.90;;;;;;5043130;28;20032;-65
2020/12/25 05:43:31;;;;;;;10.13;2.13;;;2.60;99.90;;;;;;5044826;28;20052;-63
2020/12/25 05:45:57;;;;;;;12.65;1.33;;;2.70;99.90;;;;;;5047698;28;20033;-63
2020/12/25 05:48:23;;;;;;;7.80;1.05;;;2.70;99.90;;;;;;5044889;28;20571;-65
2020/12/25 05:50:50;;;;;;;8.85;1.30;;;2.70;99.90;;;;;;5042892;28;20362;-65
2020/12/25 05:53:15;;;;;;;13.00;0.85;;;2.70;99.90;;;;;;5047703;28;20108;-62
2020/12/25 05:55:42;;;;;;;6.47;0.60;;;2.70;99.90;;;;;;5040364;28;20030;-64
2020/12/25 05:58:12;;;;;;;9.45;1.10;;;2.70;99.90;;;;;;5046386;28;20362;-64
2020/12/25 06:00:41;;;;;;;5.57;0.57;;;2.70;99.90;;;;;;5046472;28;20021;-63
2020/12/25 06:03:11;;;;;;;3.13;0.93;;;2.60;99.90;;;;;;5047221;28;20036;-64
2020/12/25 06:05:40;;;;;;;8.50;0.60;;;2.60;99.90;;;;;;5043566;28;20025;-63
2020/12/25 06:08:26;;;;;;;8.48;1.00;;;2.50;99.90;;;;;;5046581;28;20036;-65
2020/12/25 06:11:00;;;;;;;24.80;1.60;;;2.50;99.90;;;;;;5044241;28;20381;-63
2020/12/25 06:13:42;;;;;;;6.10;0.73;;;2.40;99.90;;;;;;5044046;28;20039;-64
2020/12/25 06:16:13;;;;;;;7.55;0.60;;;2.40;99.90;;;;;;5043804;28;20057;-63
2020/12/25 06:19:03;;;;;;;5.30;0.90;;;2.50;99.90;;;;;;5045745;28;20033;-64
2020/12/25 06:21:40;;;;;;;10.50;0.60;;;2.50;99.90;;;;;;5044986;28;20033;-65
2020/12/25 06:24:09;;;;;;;6.95;0.77;;;2.50;99.90;;;;;;5043127;28;20112;-63
2020/12/25 06:26:37;;;;;;;6.35;0.75;;;2.50;99.90;;;;;;5044400;28;20477;-64
2020/12/25 06:29:03;;;;;;;2.58;0.50;;;2.50;99.90;;;;;;5045464;28;20112;-64
2020/12/25 06:31:35;;;;;;;6.95;1.02;;;2.50;99.90;;;;;;5044861;28;20108;-63
2020/12/25 06:34:04;;;;;;;2.88;0.40;;;2.50;99.90;;;;;;5043549;28;20448;-65
2020/12/25 06:36:31;;;;;;;13.25;1.70;;;2.50;99.90;;;;;;5044112;28;20392;-63
2020/12/25 06:38:58;;;;;;;6.90;0.45;;;2.50;99.90;;;;;;5045715;28;20591;-63
2020/12/25 06:41:25;;;;;;;11.10;0.70;;;2.50;99.90;;;;;;5043601;28;20029;-63
2020/12/25 06:43:53;;;;;;;11.70;0.80;;;2.60;99.90;;;;;;5043713;28;20351;-64
2020/12/25 06:46:29;;;;;;;6.70;1.48;;;2.70;99.90;;;;;;5042068;28;20033;-65
2020/12/25 06:49:06;;;;;;;4.18;0.52;;;2.70;99.90;;;;;;5045472;28;20064;-63
2020/12/25 06:51:40;;;;;;;6.32;0.80;;;2.60;99.90;;;;;;5043246;28;20029;-64
2020/12/25 06:54:05;;;;;;;7.53;0.60;;;2.60;99.90;;;;;;5044746;28;20112;-64
2020/12/25 06:56:40;;;;;;;10.32;1.52;;;2.50;99.90;;;;;;5044760;28;20043;-64
2020/12/25 06:59:14;;;;;;;7.63;0.50;;;2.60;99.90;;;;;;5045372;28;20108;-65
2020/12/25 07:01:42;;;;;;;8.48;2.15;;;2.60;99.90;;;;;;5043971;28;20023;-63
2020/12/25 07:04:28;;;;;;;8.27;0.40;;;2.60;99.90;;;;;;5044946;28;20029;-65
2020/12/25 07:07:02;;;;;;;5.93;0.75;;;2.50;99.90;;;;;;5046902;28;20017;-64
2020/12/25 07:09:45;;;;;;;5.55;0.40;;;2.50;99.90;;;;;;5041125;28;20021;-64
2020/12/25 07:12:22;;;;;;;4.40;1.05;;;2.40;99.90;;;;;;5042183;28;20034;-64
2020/12/25 07:14:48;;;;;;;10.25;1.13;;;2.40;99.90;;;;;;5043810;28;20028;-65
2020/12/25 07:17:14;;;;;;;4.47;0.60;;;2.40;99.90;;;;;;5042044;28;20501;-63
2020/12/25 07:19:40;;;;;;;10.88;3.03;;;2.40;99.90;;;;;;5044946;28;20461;-64
2020/12/25 07:22:07;;;;;;;6.40;1.20;;;2.30;99.90;;;;;;5043856;28;20104;-64
2020/12/25 07:24:38;;;;;;;6.78;1.27;;;2.30;99.90;;;;;;5045078;28;20087;-64
2020/12/25 07:27:04;;;;;;;7.60;1.02;;;2.20;99.90;;;;;;5042517;28;20025;-64
2020/12/25 07:29:32;;;;;;;16.45;1.58;;;2.20;99.90;;;;;;5041916;28;20091;-64
2020/12/25 07:31:57;;;;;;;5.55;0.63;;;2.10;99.90;;;;;;5044494;28;20377;-65
2020/12/25 07:34:24;;;;;;;7.90;0.80;;;2.10;99.90;;;;;;5044883;28;20143;-63
2020/12/25 07:36:52;;;;;;;4.68;0.43;;;2.10;99.90;;;;;;5040451;28;20059;-64
2020/12/25 07:39:19;;;;;;;12.05;0.98;;;2.00;99.90;;;;;;5043286;28;20018;-63
2020/12/25 07:41:45;;;;;;;3.75;0.40;;;2.00;99.90;;;;;;5042343;28;20029;-65
2020/12/25 07:44:11;;;;;;;6.55;0.68;;;1.90;99.90;;;;;;5045099;28;20452;-64
2020/12/25 07:46:38;;;;;;;3.53;0.75;;;1.90;99.90;;;;;;5041969;28;20053;-64
2020/12/25 07:49:05;;;;;;;5.22;0.57;;;1.90;99.90;;;;;;5045318;28;20086;-64
2020/12/25 07:51:31;;;;;;;7.45;0.60;;;2.00;99.90;;;;;;5042133;28;20573;-64
2020/12/25 07:53:57;;;;;;;13.25;1.05;;;2.10;99.90;;;;;;5042461;28;20067;-66
2020/12/25 07:56:30;;;;;;;5.65;0.50;;;2.10;99.90;;;;;;5041404;28;20029;-65
2020/12/25 07:58:56;;;;;;;5.55;0.75;;;2.00;99.90;;;;;;5041835;28;20021;-64
2020/12/25 08:01:26;;;;;;;8.93;1.25;;;2.00;99.90;;;;;;5040645;28;20029;-65
2020/12/25 08:03:52;;;;;;;6.68;0.55;;;2.00;99.90;;;;;;5040285;28;20082;-64
2020/12/25 08:06:20;;;;;;;15.60;1.77;;;2.10;99.90;;;;;;5043135;28;20541;-64
2020/12/25 08:08:49;;;;;;;7.00;0.98;;;2.10;99.90;;;;;;5038517;28;20030;-63
2020/12/25 08:11:17;;;;;;;9.48;1.40;;;2.20;99.90;;;;;;5042068;28;20029;-64
2020/12/25 08:13:46;;;;;;;7.03;0.75;;;2.20;99.90;;;;;;5038942;28;20064;-65
2020/12/25 08:16:12;;;;;;;9.88;1.30;;;2.30;99.90;;;;;;5039320;28;20397;-63
2020/12/25 08:18:38;;;;;;;4.95;0.73;;;2.30;99.90;;;;;;5042424;28;20393;-64
2020/12/25 08:21:04;;;;;;;10.20;1.63;;;2.40;99.90;;;;;;5042848;28;20030;-65
2020/12/25 08:23:33;;;;;;;9.45;0.70;;;2.50;99.90;;;;;;5044043;28;20039;-64
2020/12/25 08:25:59;;;;;;;8.70;0.93;;;2.50;99.90;;;;;;5047475;28;20032;-64
2020/12/25 08:28:25;;;;;;;2.35;0.68;;;2.60;99.90;;;;;;5043434;28;20424;-63
2020/12/25 08:30:50;;;;;;;6.60;0.70;;;2.60;99.90;;;;;;5040704;28;20025;-64
2020/12/25 08:33:26;;;;;;;18.67;3.08;;;2.70;99.90;;;;;;5044086;28;20509;-64
2020/12/25 08:35:56;;;;;;;5.93;1.00;;;2.70;99.90;;;;;;5046627;23;20050;-59
2020/12/25 08:38:21;;;;;;;9.77;0.98;;;2.70;99.90;;;;;;5003591;28;20030;-59
2020/12/25 08:40:48;;;;;;;8.50;1.88;;;2.70;99.90;;;;;;5002939;28;20087;-60
2020/12/25 08:43:16;;;;;;;21.00;1.08;;;2.80;99.90;;;;;;5001885;28;21260;-60
2020/12/25 08:45:56;;;;;;;4.70;0.70;;;2.80;99.90;;;;;;5001479;28;20050;-61
2020/12/25 08:48:22;;;;;;;12.07;0.90;;;2.80;99.90;;;;;;5004357;28;20041;-60
2020/12/25 08:50:48;;;;;;;7.07;0.55;;;2.80;99.90;;;;;;5008094;28;20041;-60
2020/12/25 08:53:21;;;;;;;7.25;0.80;;;2.90;99.90;;;;;;4989669;28;20057;-60
2020/12/25 08:55:49;;;;;;;6.10;0.55;;;2.90;99.90;;;;;;5006548;28;20041;-60
2020/12/25 08:58:16;;;;;;;10.73;1.13;;;2.90;99.90;;;;;;5001778;28;20431;-60
2020/12/25 09:00:42;;;;;;;15.18;2.47;;;3.00;99.90;;;;;;5002829;28;20038;-60
2020/12/25 09:03:07;;;;;;;4.13;0.60;;;3.00;99.90;;;;;;5004142;28;20481;-60
2020/12/25 09:05:33;;;;;;;11.52;1.08;;;3.00;99.90;;;;;;5000792;28;20040;-60
2020/12/25 09:07:58;;;;;;;6.00;0.93;;;3.10;99.90;;;;;;5001784;28;20038;-59
2020/12/25 09:10:25;;;;;;;6.35;1.38;;;3.10;99.90;;;;;;5004334;28;20061;-59
2020/12/25 09:12:50;;;;;;;3.58;0.80;;;3.10;99.90;;;;;;5002753;28;20030;-60
2020/12/25 09:15:16;;;;;;;3.25;0.45;;;3.20;99.90;;;;;;5005752;28;20030;-61
2020/12/25 09:17:41;;;;;;;9.88;1.00;;;3.30;99.90;;;;;;4990934;28;20113;-61
2020/12/25 09:20:07;;;;;;;6.85;1.25;;;3.40;99.90;;;;;;5000448;28;20033;-60
2020/12/25 09:22:33;;;;;;;3.53;0.95;;;3.40;99.90;;;;;;5008873;28;20034;-61
2020/12/25 09:24:58;;;;;;;12.43;0.98;;;3.40;99.90;;;;;;5001993;28;20033;-59
2020/12/25 09:27:24;;;;;;;5.47;1.27;;;3.50;99.90;;;;;;5003972;28;20041;-60
2020/12/25 09:29:49;;;;;;;14.23;1.95;;;3.60;99.90;;;;;;5005226;28;20040;-61
2020/12/25 09:32:15;;;;;;;8.05;0.77;;;3.70;99.90;;;;;;5004880;28;20050;-60
2020/12/25 09:34:40;;;;;;;7.30;0.90;;;3.70;99.90;;;;;;4989329;28;20046;-59
2020/12/25 09:37:06;;;;;;;8.63;0.50;;;3.80;99.90;;;;;;5005805;28;20049;-61
2020/12/25 09:39:31;;;;;;;10.68;1.08;;;3.80;99.90;;;;;;4988981;28;20153;-60
2020/12/25 09:41:57;;;;;;;4.95;0.88;;;3.90;99.90;;;;;;5007399;28;20160;-60
2020/12/25 09:44:22;;;;;;;13.73;1.42;;;3.90;99.90;;;;;;4991733;28;20045;-60
2020/12/25 09:46:48;;;;;;;16.13;0.90;;;4.00;99.90;;;;;;5011504;28;20033;-62
2020/12/25 09:49:14;;;;;;;7.53;2.13;;;4.10;99.90;;;;;;5004421;28;20061;-59
2020/12/25 09:51:39;;;;;;;6.18;0.70;;;4.20;99.90;;;;;;5007198;28;20026;-60
2020/12/25 09:54:05;;;;;;;13.25;1.15;;;4.30;99.90;;;;;;5005945;28;20042;-60
2020/12/25 09:56:30;;;;;;;12.73;1.80;;;4.30;99.90;;;;;;4991431;28;20036;-59
2020/12/25 09:58:56;;;;;;;4.28;0.85;;;4.40;99.90;;;;;;4984376;28;20045;-60
2020/12/25 10:01:21;;;;;;;4.00;0.80;;;4.50;99.90;;;;;;5005332;28;20257;-60
2020/12/25 10:03:47;;;;;;;4.05;0.90;;;4.50;99.90;;;;;;5007355;28;20475;-60
2020/12/25 10:06:12;;;;;;;3.63;0.50;;;4.50;99.90;;;;;;4985954;28;22628;-59
2020/12/25 10:08:38;;;;;;;7.97;1.27;;;4.60;99.90;;;;;;5006123;28;20409;-59
2020/12/25 10:11:03;;;;;;;10.93;1.60;;;4.60;99.90;;;;;;5006995;28;20391;-60
2020/12/25 10:13:29;;;;;;;13.23;1.65;;;4.70;99.90;;;;;;5006377;28;20045;-60
2020/12/25 10:15:54;;;;;;;17.02;1.85;;;4.70;99.90;;;;;;5005029;28;20076;-59
2020/12/25 10:18:20;;;;;;;5.85;0.73;;;4.80;99.90;;;;;;5008936;28;20033;-60
2020/12/25 10:20:47;;;;;;;8.43;1.73;;;4.90;99.90;;;;;;5005070;28;20038;-60
2020/12/25 10:23:12;;;;;;;8.90;1.38;;;5.00;99.90;;;;;;4990862;28;20044;-60
2020/12/25 10:25:38;;;;;;;4.13;0.57;;;5.00;99.90;;;;;;5006766;28;20113;-60
2020/12/25 10:28:03;;;;;;;3.47;1.40;;;5.00;99.90;;;;;;4986404;28;20034;-59
2020/12/25 10:30:29;;;;;;;5.47;0.80;;;5.10;99.90;;;;;;4996937;28;20041;-61
2020/12/25 10:32:54;;;;;;;5.93;0.70;;;5.10;99.90;;;;;;5008720;28;20042;-61
2020/12/25 10:35:21;;;;;;;4.55;0.88;;;5.10;99.90;;;;;;5007905;28;20091;-59
2020/12/25 10:37:46;;;;;;;3.40;0.60;;;5.20;99.90;;;;;;5008195;28;20034;-60
2020/12/25 10:40:12;;;;;;;12.73;1.00;;;5.30;99.90;;;;;;5006752;28;20567;-60
2020/12/25 10:42:37;;;;;;;9.82;1.02;;;5.30;99.90;;;;;;5003138;28;20455;-61
2020/12/25 10:45:03;;;;;;;4.85;0.38;;;5.40;99.90;;;;;;5007451;28;20038;-60
2020/12/25 10:47:28;;;;;;;9.18;1.85;;;5.40;99.90;;;;;;5007399;28;20042;-60
2020/12/25 10:49:54;;;;;;;14.55;2.00;;;5.50;99.90;;;;;;5008004;28;20076;-60
2020/12/25 10:52:20;;;;;;;3.97;0.60;;;5.50;99.90;;;;;;5012679;28;20149;-60
2020/12/25 10:54:46;;;;;;;7.15;0.77;;;5.60;99.90;;;;;;5001275;28;20045;-60
2020/12/25 10:57:11;;;;;;;2.83;0.43;;;5.70;99.90;;;;;;5000929;28;20035;-60
2020/12/25 10:59:37;;;;;;;4.40;0.80;;;5.90;99.90;;;;;;5007232;28;20042;-61
2020/12/25 11:02:02;;;;;;;6.07;0.93;;;6.10;99.90;;;;;;5003166;28;20037;-60
2020/12/25 11:04:27;;;;;;;5.07;0.50;;;6.30;99.90;;;;;;5008788;28;20083;-60
2020/12/25 11:06:53;;;;;;;4.30;0.65;;;6.40;99.90;;;;;;5006481;28;20081;-59
2020/12/25 11:09:18;;;;;;;2.15;0.40;;;6.40;99.90;;;;;;5006051;28;20034;-60
2020/12/25 11:11:44;;;;;;;5.40;0.90;;;6.40;99.90;;;;;;5006873;28;20034;-60
2020/12/25 11:14:10;;;;;;;4.20;0.68;;;6.30;99.90;;;;;;4998339;28;20478;-60
2020/12/25 11:16:37;;;;;;;5.57;0.95;;;6.30;99.90;;;;;;4982067;28;20038;-60
2020/12/25 11:19:06;;;;;;;8.77;0.73;;;6.30;99.90;;;;;;5005986;28;20154;-60
2020/12/25 11:21:32;;;;;;;2.13;0.52;;;6.40;99.90;;;;;;5000019;28;20038;-61
2020/12/25 11:23:59;;;;;;;1.35;0.40;;;6.50;99.90;;;;;;5002477;28;20529;-60
2020/12/25 11:26:30;;;;;;;8.43;1.13;;;6.60;99.90;;;;;;5004187;28;20416;-60
2020/12/25 11:29:04;;;;;;;13.20;1.75;;;6.60;99.90;;;;;;4991814;28;20030;-61
2020/12/25 11:31:31;;;;;;;17.10;1.77;;;6.60;99.90;;;;;;5008117;28;20080;-61
2020/12/25 11:33:57;;;;;;;5.75;0.50;;;6.50;99.90;;;;;;4987650;28;20033;-60
2020/12/25 11:36:27;;;;;;;15.43;1.48;;;6.40;99.90;;;;;;5003740;28;20029;-60
2020/12/25 11:38:53;;;;;;;;;;;6.30;99.90;;;;;;4983746;28;20395;-60
2020/12/25 11:41:21;;;;;;;5.22;0.90;;;6.30;99.90;;;;;;5000037;28;19914;-61
2020/12/25 11:43:49;;;;;;;3.53;0.45;;;6.20;99.90;;;;;;5001620;28;20058;-61
2020/12/25 11:46:16;;;;;;;3.85;1.02;;;6.30;99.90;;;;;;4997721;28;20522;-60
2020/12/25 11:48:42;;;;;;;6.18;0.40;;;6.30;99.90;;;;;;5002231;28;20030;-60
2020/12/25 11:51:08;;;;;;;5.28;0.80;;;6.40;99.90;;;;;;4998749;28;20025;-63
2020/12/25 11:53:37;;;;;;;7.43;0.65;;;6.50;99.90;;;;;;5000843;28;20038;-59
2020/12/25 11:56:03;;;;;;;10.68;1.38;;;6.50;99.90;;;;;;5006655;28;20022;-61
2020/12/25 11:58:28;;;;;;;14.05;3.72;;;6.60;99.90;;;;;;4999677;28;20108;-60
2020/12/25 12:00:54;;;;;;;5.75;1.17;;;6.70;99.90;;;;;;5000284;28;20403;-60
2020/12/25 12:03:23;;;;;;;10.85;1.35;;;6.70;99.90;;;;;;5004550;28;20061;-60
2020/12/25 12:05:48;;;;;;;7.57;0.60;;;6.90;99.90;;;;;;5004295;28;20026;-60
2020/12/25 12:08:14;;;;;;;6.18;1.02;;;7.00;99.90;;;;;;5007918;28;20548;-61
2020/12/25 12:10:40;;;;;;;3.40;0.50;;;7.10;99.90;;;;;;4998280;28;20038;-60
2020/12/25 12:13:06;;;;;;;5.07;0.70;;;7.10;99.90;;;;;;4987231;28;20498;-61
2020/12/25 12:15:36;;;;;;;3.15;0.52;;;7.20;99.90;;;;;;5004173;28;20041;-60
2020/12/25 12:18:03;;;;;;;5.45;0.30;;;7.20;99.90;;;;;;4996995;28;20060;-61
2020/12/25 12:20:28;;;;;;;5.60;0.70;;;7.20;99.90;;;;;;4989208;28;20030;-60
2020/12/25 12:22:54;;;;;;;3.53;0.85;;;7.20;99.90;;;;;;5002814;28;20100;-60
2020/12/25 12:25:19;;;;;;;3.60;0.50;;;7.10;99.90;;;;;;5003152;28;20405;-61
2020/12/25 12:27:45;;;;;;;2.70;0.40;;;7.10;99.90;;;;;;5011727;28;20041;-61
2020/12/25 12:30:10;;;;;;;8.35;0.68;;;7.10;99.90;;;;;;5004566;28;20037;-60
2020/12/25 12:32:36;;;;;;;9.75;0.80;;;7.00;99.90;;;;;;4988234;28;20073;-59
2020/12/25 12:35:02;;;;;;;5.95;1.77;;;6.90;99.90;;;;;;5003215;28;20038;-60
2020/12/25 12:37:27;;;;;;;3.53;0.93;;;6.80;99.90;;;;;;5004028;28;20034;-60
2020/12/25 12:39:53;;;;;;;4.13;0.60;;;6.70;99.90;;;;;;5008122;28;20045;-61
2020/12/25 12:42:18;;;;;;;1.80;0.50;;;6.60;99.90;;;;;;5009564;28;20034;-60
2020/12/25 12:44:44;;;;;;;8.15;1.45;;;6.50;99.90;;;;;;5008385;28;20061;-60
2020/12/25 12:47:09;;;;;;;3.08;0.50;;;6.40;99.90;;;;;;5014233;28;20041;-60
2020/12/25 12:49:35;;;;;;;6.88;0.45;;;6.40;99.90;;;;;;5015042;28;20041;-61
2020/12/25 12:52:00;;;;;;;5.05;0.80;;;6.30;99.90;;;;;;4997362;28;20045;-60
2020/12/25 12:54:26;;;;;;;3.92;0.38;;;6.20;99.90;;;;;;5005400;28;20037;-59